TimeEDT,TemperatureF,Dew PointF,Humidity,Sea Level PressureIn,VisibilityMPH,Wind Direction,Wind SpeedMPH,Gust SpeedMPH,PrecipitationIn,Events,Conditions,WindDirDegrees,DateUTC
12:53 AM,57.9,54.0,87,30.03,10.0,Calm,Calm,-,N/A,,Clear,0,2013-07-12 04:53:00
1:53 AM,54.0,51.1,90,30.04,8.0,Calm,Calm,-,N/A,,Clear,0,2013-07-12 05:53:00
2:53 AM,55.0,52.0,89,30.06,10.0,Calm,Calm,-,N/A,,Clear,0,2013-07-12 06:53:00
3:53 AM,55.9,54.0,93,30.06,8.0,North,3.5,-,N/A,,Clear,10,2013-07-12 07:53:00
4:53 AM,55.9,53.1,90,30.07,7.0,North,4.6,-,N/A,,Scattered Clouds,360,2013-07-12 08:53:00
5:53 AM,57.0,54.0,89,30.08,8.0,NNE,3.5,-,N/A,,Scattered Clouds,20,2013-07-12 09:53:00
6:53 AM,57.0,54.0,89,30.09,8.0,NE,4.6,-,N/A,,Clear,50,2013-07-12 10:53:00
7:53 AM,59.0,55.0,87,30.11,10.0,ENE,5.8,-,N/A,,Clear,60,2013-07-12 11:53:00
8:53 AM,62.1,57.0,84,30.13,10.0,NE,4.6,-,N/A,,Clear,40,2013-07-12 12:53:00
9:53 AM,64.0,55.9,75,30.13,10.0,East,8.1,-,N/A,,Partly Cloudy,80,2013-07-12 13:53:00
10:53 AM,64.0,55.9,75,30.14,10.0,NE,8.1,-,N/A,,Clear,50,2013-07-12 14:53:00
11:53 AM,64.9,55.9,73,30.15,10.0,NE,6.9,-,N/A,,Clear,50,2013-07-12 15:53:00
12:53 PM,66.0,57.0,73,30.15,10.0,NE,8.1,-,N/A,,Clear,40,2013-07-12 16:53:00
1:53 PM,66.9,57.0,70,30.15,10.0,NE,8.1,-,N/A,,Clear,50,2013-07-12 17:53:00
2:53 PM,68.0,57.0,68,30.14,10.0,ENE,6.9,-,N/A,,Clear,60,2013-07-12 18:53:00
3:53 PM,68.0,55.9,65,30.15,10.0,NE,4.6,-,N/A,,Clear,40,2013-07-12 19:53:00
4:53 PM,68.0,57.0,68,30.14,10.0,ENE,6.9,-,N/A,,Clear,60,2013-07-12 20:53:00
5:53 PM,68.0,55.9,65,30.13,10.0,Variable,3.5,-,N/A,,Clear,0,2013-07-12 21:53:00
6:53 PM,66.9,55.0,66,30.13,10.0,NE,9.2,-,N/A,,Clear,50,2013-07-12 22:53:00
7:53 PM,64.9,55.0,70,30.14,10.0,NE,4.6,-,N/A,,Clear,50,2013-07-12 23:53:00
8:53 PM,64.0,55.0,73,30.15,10.0,NNE,3.5,-,N/A,,Clear,20,2013-07-13 00:53:00
9:53 PM,62.1,55.9,80,30.17,10.0,North,4.6,-,N/A,,Clear,10,2013-07-13 01:53:00
10:53 PM,62.1,55.0,78,30.18,10.0,NNE,3.5,-,N/A,,Clear,20,2013-07-13 02:53:00
11:53 PM,61.0,55.0,81,30.18,10.0,Calm,Calm,-,N/A,,Clear,0,2013-07-13 03:53:00